sensor_id;sensor_type;location;lat;lon;timestamp;P1;durP1;ratioP1;P2;durP2;ratioP2
13250;SDS011;6692;50.710;7.180;2023-02-12T00:01:35;47.97;;;45.00;;
13250;SDS011;6692;50.710;7.180;2023-02-12T00:03:36;44.17;;;41.27;;
13250;SDS011;6692;50.710;7.180;2023-02-12T00:05:37;47.50;;;44.57;;
13250;SDS011;6692;50.710;7.180;2023-02-12T00:07:37;48.73;;;45.80;;
13250;SDS011;6692;50.710;7.180;2023-02-12T00:09:38;47.50;;;44.73;;
13250;SDS011;6692;50.710;7.180;2023-02-12T00:11:40;51.90;;;48.17;;
13250;SDS011;6692;50.710;7.180;2023-02-12T00:13:41;51.17;;;48.10;;
13250;SDS011;6692;50.710;7.180;2023-02-12T00:15:42;50.30;;;47.13;;
13250;SDS011;6692;50.710;7.180;2023-02-12T00:17:44;50.37;;;47.07;;
13250;SDS011;6692;50.710;7.180;2023-02-12T00:19:46;50.03;;;46.80;;
13250;SDS011;6692;50.710;7.180;2023-02-12T00:21:46;50.57;;;46.97;;
13250;SDS011;6692;50.710;7.180;2023-02-12T00:23:48;52.27;;;49.07;;
13250;SDS011;6692;50.710;7.180;2023-02-12T00:25:49;47.57;;;44.47;;
13250;SDS011;6692;50.710;7.180;2023-02-12T00:27:51;48.60;;;45.53;;
13250;SDS011;6692;50.710;7.180;2023-02-12T00:29:51;51.43;;;48.23;;
13250;SDS011;6692;50.710;7.180;2023-02-12T00:31:52;51.03;;;47.60;;
13250;SDS011;6692;50.710;7.180;2023-02-12T00:33:52;49.30;;;46.07;;
13250;SDS011;6692;50.710;7.180;2023-02-12T00:35:54;52.60;;;48.97;;
13250;SDS011;6692;50.710;7.180;2023-02-12T00:37:54;48.23;;;45.00;;
13250;SDS011;6692;50.710;7.180;2023-02-12T00:39:55;51.00;;;47.43;;
13250;SDS011;6692;50.710;7.180;2023-02-12T00:41:56;49.63;;;46.40;;
13250;SDS011;6692;50.710;7.180;2023-02-12T00:43:57;49.20;;;45.77;;
13250;SDS011;6692;50.710;7.180;2023-02-12T00:45:58;49.80;;;46.53;;
13250;SDS011;6692;50.710;7.180;2023-02-12T00:47:58;47.43;;;44.27;;
13250;SDS011;6692;50.710;7.180;2023-02-12T00:49:59;53.13;;;49.77;;
13250;SDS011;6692;50.710;7.180;2023-02-12T00:52:01;50.13;;;47.00;;
13250;SDS011;6692;50.710;7.180;2023-02-12T00:54:01;49.40;;;46.13;;
13250;SDS011;6692;50.710;7.180;2023-02-12T00:56:02;52.17;;;48.70;;
13250;SDS011;6692;50.710;7.180;2023-02-12T00:58:03;51.67;;;48.47;;
13250;SDS011;6692;50.710;7.180;2023-02-12T01:00:04;51.87;;;48.60;;
13250;SDS011;6692;50.710;7.180;2023-02-12T01:02:06;51.17;;;47.87;;
13250;SDS011;6692;50.710;7.180;2023-02-12T01:04:07;48.17;;;45.20;;
13250;SDS011;6692;50.710;7.180;2023-02-12T01:06:07;48.97;;;45.80;;
13250;SDS011;6692;50.710;7.180;2023-02-12T01:08:11;48.63;;;45.73;;
13250;SDS011;6692;50.710;7.180;2023-02-12T01:10:11;50.17;;;46.83;;
13250;SDS011;6692;50.710;7.180;2023-02-12T01:12:12;47.03;;;43.93;;
13250;SDS011;6692;50.710;7.180;2023-02-12T01:14:12;49.47;;;46.27;;
13250;SDS011;6692;50.710;7.180;2023-02-12T01:16:16;49.13;;;46.20;;
13250;SDS011;6692;50.710;7.180;2023-02-12T01:18:14;47.73;;;44.87;;
13250;SDS011;6692;50.710;7.180;2023-02-12T01:20:15;43.90;;;41.23;;
13250;SDS011;6692;50.710;7.180;2023-02-12T01:22:16;45.13;;;42.30;;
13250;SDS011;6692;50.710;7.180;2023-02-12T01:24:17;48.03;;;45.10;;
13250;SDS011;6692;50.710;7.180;2023-02-12T01:26:18;49.63;;;46.77;;
13250;SDS011;6692;50.710;7.180;2023-02-12T01:28:19;49.67;;;46.20;;
13250;SDS011;6692;50.710;7.180;2023-02-12T01:30:21;49.00;;;45.50;;
13250;SDS011;6692;50.710;7.180;2023-02-12T01:32:22;46.33;;;43.43;;
13250;SDS011;6692;50.710;7.180;2023-02-12T01:34:22;47.30;;;44.40;;
13250;SDS011;6692;50.710;7.180;2023-02-12T01:36:23;45.90;;;43.07;;
13250;SDS011;6692;50.710;7.180;2023-02-12T01:38:24;47.00;;;44.10;;
13250;SDS011;6692;50.710;7.180;2023-02-12T01:40:24;45.70;;;42.90;;
13250;SDS011;6692;50.710;7.180;2023-02-12T01:42:25;46.83;;;44.13;;
13250;SDS011;6692;50.710;7.180;2023-02-12T01:44:28;48.40;;;45.50;;
13250;SDS011;6692;50.710;7.180;2023-02-12T01:46:28;45.93;;;43.00;;
13250;SDS011;6692;50.710;7.180;2023-02-12T01:48:32;43.47;;;40.73;;
13250;SDS011;6692;50.710;7.180;2023-02-12T01:50:30;47.43;;;44.63;;
13250;SDS011;6692;50.710;7.180;2023-02-12T01:52:32;46.67;;;43.80;;
13250;SDS011;6692;50.710;7.180;2023-02-12T01:54:32;44.73;;;42.17;;
13250;SDS011;6692;50.710;7.180;2023-02-12T01:56:33;47.17;;;44.20;;
13250;SDS011;6692;50.710;7.180;2023-02-12T01:58:34;48.83;;;46.07;;
13250;SDS011;6692;50.710;7.180;2023-02-12T02:00:34;46.67;;;43.90;;
13250;SDS011;6692;50.710;7.180;2023-02-12T02:02:35;45.57;;;42.97;;
13250;SDS011;6692;50.710;7.180;2023-02-12T02:04:39;45.37;;;42.60;;
13250;SDS011;6692;50.710;7.180;2023-02-12T02:06:40;48.67;;;45.73;;
13250;SDS011;6692;50.710;7.180;2023-02-12T02:08:38;46.80;;;43.33;;
13250;SDS011;6692;50.710;7.180;2023-02-12T02:10:39;45.33;;;42.23;;
13250;SDS011;6692;50.710;7.180;2023-02-12T02:12:40;48.53;;;45.30;;
13250;SDS011;6692;50.710;7.180;2023-02-12T02:14:48;45.47;;;42.43;;
13250;SDS011;6692;50.710;7.180;2023-02-12T02:16:53;46.47;;;43.40;;
13250;SDS011;6692;50.710;7.180;2023-02-12T02:18:52;43.37;;;40.47;;
13250;SDS011;6692;50.710;7.180;2023-02-12T02:20:59;43.87;;;41.10;;
13250;SDS011;6692;50.710;7.180;2023-02-12T02:23:08;48.60;;;45.43;;
13250;SDS011;6692;50.710;7.180;2023-02-12T02:25:14;47.63;;;44.40;;
13250;SDS011;6692;50.710;7.180;2023-02-12T02:28:26;44.67;;;41.73;;
13250;SDS011;6692;50.710;7.180;2023-02-12T02:29:40;47.53;;;44.30;;
13250;SDS011;6692;50.710;7.180;2023-02-12T02:31:57;42.27;;;39.40;;
13250;SDS011;6692;50.710;7.180;2023-02-12T02:34:02;45.13;;;42.10;;
13250;SDS011;6692;50.710;7.180;2023-02-12T02:36:24;41.43;;;38.57;;
13250;SDS011;6692;50.710;7.180;2023-02-12T02:38:33;47.23;;;44.20;;
13250;SDS011;6692;50.710;7.180;2023-02-12T02:40:38;45.03;;;42.10;;
13250;SDS011;6692;50.710;7.180;2023-02-12T02:42:38;46.77;;;43.87;;
13250;SDS011;6692;50.710;7.180;2023-02-12T02:44:41;47.07;;;44.13;;
13250;SDS011;6692;50.710;7.180;2023-02-12T02:46:43;47.73;;;44.87;;
13250;SDS011;6692;50.710;7.180;2023-02-12T02:48:44;55.23;;;50.90;;
13250;SDS011;6692;50.710;7.180;2023-02-12T02:50:45;48.50;;;45.47;;
13250;SDS011;6692;50.710;7.180;2023-02-12T02:52:48;49.97;;;46.93;;
13250;SDS011;6692;50.710;7.180;2023-02-12T02:54:48;53.13;;;49.97;;
13250;SDS011;6692;50.710;7.180;2023-02-12T02:56:49;53.50;;;49.77;;
13250;SDS011;6692;50.710;7.180;2023-02-12T02:58:52;52.67;;;49.30;;
13250;SDS011;6692;50.710;7.180;2023-02-12T03:00:54;49.17;;;46.07;;
13250;SDS011;6692;50.710;7.180;2023-02-12T03:02:54;52.23;;;48.90;;
13250;SDS011;6692;50.710;7.180;2023-02-12T03:04:57;59.87;;;55.67;;
13250;SDS011;6692;50.710;7.180;2023-02-12T03:06:57;53.13;;;49.97;;
13250;SDS011;6692;50.710;7.180;2023-02-12T03:08:59;56.10;;;52.50;;
13250;SDS011;6692;50.710;7.180;2023-02-12T03:11:04;57.73;;;53.97;;
13250;SDS011;6692;50.710;7.180;2023-02-12T03:13:02;52.57;;;49.20;;
13250;SDS011;6692;50.710;7.180;2023-02-12T03:15:05;53.30;;;49.90;;
13250;SDS011;6692;50.710;7.180;2023-02-12T03:17:04;49.33;;;46.17;;
13250;SDS011;6692;50.710;7.180;2023-02-12T03:19:10;52.53;;;49.23;;
13250;SDS011;6692;50.710;7.180;2023-02-12T03:21:12;54.67;;;51.13;;
13250;SDS011;6692;50.710;7.180;2023-02-12T03:23:14;51.17;;;48.00;;
13250;SDS011;6692;50.710;7.180;2023-02-12T03:25:16;52.87;;;49.40;;
13250;SDS011;6692;50.710;7.180;2023-02-12T03:27:18;52.67;;;49.13;;
13250;SDS011;6692;50.710;7.180;2023-02-12T03:29:18;55.47;;;52.23;;
13250;SDS011;6692;50.710;7.180;2023-02-12T03:31:23;56.00;;;52.57;;
13250;SDS011;6692;50.710;7.180;2023-02-12T03:35:54;45.73;;;42.67;;
13250;SDS011;6692;50.710;7.180;2023-02-12T03:38:00;52.90;;;49.67;;
13250;SDS011;6692;50.710;7.180;2023-02-12T03:40:05;46.63;;;43.70;;
13250;SDS011;6692;50.710;7.180;2023-02-12T03:42:08;49.10;;;45.90;;
13250;SDS011;6692;50.710;7.180;2023-02-12T03:44:09;51.60;;;48.67;;
13250;SDS011;6692;50.710;7.180;2023-02-12T03:46:13;51.47;;;48.30;;
13250;SDS011;6692;50.710;7.180;2023-02-12T03:48:16;47.93;;;44.70;;
13250;SDS011;6692;50.710;7.180;2023-02-12T03:50:15;49.67;;;46.60;;
13250;SDS011;6692;50.710;7.180;2023-02-12T03:52:14;52.40;;;49.03;;
13250;SDS011;6692;50.710;7.180;2023-02-12T03:54:15;55.77;;;52.10;;
13250;SDS011;6692;50.710;7.180;2023-02-12T03:56:17;47.93;;;44.97;;
13250;SDS011;6692;50.710;7.180;2023-02-12T03:58:18;58.00;;;54.50;;
13250;SDS011;6692;50.710;7.180;2023-02-12T04:00:19;57.40;;;53.97;;
13250;SDS011;6692;50.710;7.180;2023-02-12T04:02:19;55.83;;;52.33;;
13250;SDS011;6692;50.710;7.180;2023-02-12T04:04:20;51.70;;;48.60;;
13250;SDS011;6692;50.710;7.180;2023-02-12T04:06:22;50.10;;;47.13;;
13250;SDS011;6692;50.710;7.180;2023-02-12T04:08:23;47.80;;;44.90;;
13250;SDS011;6692;50.710;7.180;2023-02-12T04:14:37;52.77;;;49.43;;
13250;SDS011;6692;50.710;7.180;2023-02-12T04:16:43;50.67;;;47.73;;
13250;SDS011;6692;50.710;7.180;2023-02-12T04:18:46;51.53;;;47.97;;
13250;SDS011;6692;50.710;7.180;2023-02-12T04:20:58;50.33;;;47.30;;
13250;SDS011;6692;50.710;7.180;2023-02-12T04:24:11;46.03;;;43.30;;
13250;SDS011;6692;50.710;7.180;2023-02-12T04:25:31;41.30;;;38.67;;
13250;SDS011;6692;50.710;7.180;2023-02-12T04:27:34;43.83;;;41.00;;
13250;SDS011;6692;50.710;7.180;2023-02-12T04:29:41;49.57;;;46.43;;
13250;SDS011;6692;50.710;7.180;2023-02-12T04:31:55;44.90;;;42.03;;
13250;SDS011;6692;50.710;7.180;2023-02-12T04:33:59;50.33;;;47.40;;
13250;SDS011;6692;50.710;7.180;2023-02-12T04:35:59;49.37;;;46.23;;
13250;SDS011;6692;50.710;7.180;2023-02-12T04:38:01;52.00;;;48.93;;
13250;SDS011;6692;50.710;7.180;2023-02-12T04:40:03;55.63;;;52.40;;
13250;SDS011;6692;50.710;7.180;2023-02-12T04:42:04;49.70;;;46.70;;
13250;SDS011;6692;50.710;7.180;2023-02-12T04:46:12;45.17;;;42.53;;
13250;SDS011;6692;50.710;7.180;2023-02-12T04:48:12;52.33;;;49.17;;
13250;SDS011;6692;50.710;7.180;2023-02-12T04:50:13;49.93;;;47.07;;
13250;SDS011;6692;50.710;7.180;2023-02-12T04:52:14;49.10;;;46.13;;
13250;SDS011;6692;50.710;7.180;2023-02-12T04:54:15;49.17;;;46.20;;
13250;SDS011;6692;50.710;7.180;2023-02-12T04:56:16;55.03;;;51.87;;
13250;SDS011;6692;50.710;7.180;2023-02-12T04:58:17;46.63;;;43.87;;
13250;SDS011;6692;50.710;7.180;2023-02-12T05:00:18;54.03;;;50.83;;
13250;SDS011;6692;50.710;7.180;2023-02-12T05:02:19;60.17;;;56.87;;
13250;SDS011;6692;50.710;7.180;2023-02-12T05:04:20;48.97;;;46.07;;
13250;SDS011;6692;50.710;7.180;2023-02-12T05:06:21;49.03;;;46.13;;
13250;SDS011;6692;50.710;7.180;2023-02-12T05:08:22;47.83;;;45.00;;
13250;SDS011;6692;50.710;7.180;2023-02-12T05:10:23;48.93;;;45.97;;
13250;SDS011;6692;50.710;7.180;2023-02-12T05:12:25;45.60;;;42.77;;
13250;SDS011;6692;50.710;7.180;2023-02-12T05:14:26;46.10;;;43.03;;
13250;SDS011;6692;50.710;7.180;2023-02-12T05:16:27;44.53;;;41.77;;
13250;SDS011;6692;50.710;7.180;2023-02-12T05:18:29;42.87;;;40.10;;
13250;SDS011;6692;50.710;7.180;2023-02-12T05:20:30;46.37;;;43.47;;
13250;SDS011;6692;50.710;7.180;2023-02-12T05:22:30;41.87;;;39.23;;
13250;SDS011;6692;50.710;7.180;2023-02-12T05:24:32;46.23;;;43.40;;
13250;SDS011;6692;50.710;7.180;2023-02-12T05:26:32;45.63;;;42.80;;
13250;SDS011;6692;50.710;7.180;2023-02-12T05:28:33;44.30;;;41.50;;
13250;SDS011;6692;50.710;7.180;2023-02-12T05:30:33;44.90;;;42.07;;
13250;SDS011;6692;50.710;7.180;2023-02-12T05:32:34;46.27;;;43.33;;
13250;SDS011;6692;50.710;7.180;2023-02-12T05:34:35;45.47;;;42.67;;
13250;SDS011;6692;50.710;7.180;2023-02-12T05:36:36;44.17;;;41.40;;
13250;SDS011;6692;50.710;7.180;2023-02-12T05:38:38;45.17;;;42.47;;
13250;SDS011;6692;50.710;7.180;2023-02-12T05:40:39;47.43;;;44.57;;
13250;SDS011;6692;50.710;7.180;2023-02-12T05:42:40;45.83;;;43.20;;
13250;SDS011;6692;50.710;7.180;2023-02-12T05:44:40;47.87;;;44.93;;
13250;SDS011;6692;50.710;7.180;2023-02-12T05:46:41;47.13;;;44.27;;
13250;SDS011;6692;50.710;7.180;2023-02-12T05:48:41;48.03;;;44.87;;
13250;SDS011;6692;50.710;7.180;2023-02-12T05:50:42;47.77;;;44.80;;
13250;SDS011;6692;50.710;7.180;2023-02-12T05:52:43;47.50;;;44.70;;
13250;SDS011;6692;50.710;7.180;2023-02-12T05:54:43;48.73;;;45.90;;
13250;SDS011;6692;50.710;7.180;2023-02-12T05:56:45;52.50;;;49.33;;
13250;SDS011;6692;50.710;7.180;2023-02-12T05:58:46;52.27;;;49.10;;
13250;SDS011;6692;50.710;7.180;2023-02-12T06:00:47;53.40;;;50.20;;
13250;SDS011;6692;50.710;7.180;2023-02-12T06:02:47;53.47;;;50.30;;
13250;SDS011;6692;50.710;7.180;2023-02-12T06:04:48;55.00;;;51.80;;
13250;SDS011;6692;50.710;7.180;2023-02-12T06:06:49;50.60;;;47.47;;
13250;SDS011;6692;50.710;7.180;2023-02-12T06:08:51;52.33;;;49.23;;
13250;SDS011;6692;50.710;7.180;2023-02-12T06:10:52;52.83;;;49.33;;
13250;SDS011;6692;50.710;7.180;2023-02-12T06:12:54;49.73;;;46.67;;
13250;SDS011;6692;50.710;7.180;2023-02-12T06:14:54;54.27;;;50.67;;
13250;SDS011;6692;50.710;7.180;2023-02-12T06:16:54;54.83;;;51.23;;
13250;SDS011;6692;50.710;7.180;2023-02-12T06:18:55;52.67;;;49.37;;
13250;SDS011;6692;50.710;7.180;2023-02-12T06:20:56;56.83;;;53.37;;
13250;SDS011;6692;50.710;7.180;2023-02-12T06:22:57;51.73;;;48.47;;
13250;SDS011;6692;50.710;7.180;2023-02-12T06:24:58;55.07;;;51.63;;
13250;SDS011;6692;50.710;7.180;2023-02-12T06:27:00;54.00;;;50.70;;
13250;SDS011;6692;50.710;7.180;2023-02-12T06:29:01;51.40;;;48.17;;
13250;SDS011;6692;50.710;7.180;2023-02-12T06:31:03;50.10;;;46.87;;
13250;SDS011;6692;50.710;7.180;2023-02-12T06:33:03;52.60;;;49.50;;
13250;SDS011;6692;50.710;7.180;2023-02-12T06:35:04;56.57;;;52.97;;
13250;SDS011;6692;50.710;7.180;2023-02-12T06:37:05;50.67;;;47.40;;
13250;SDS011;6692;50.710;7.180;2023-02-12T06:39:06;54.17;;;50.93;;
13250;SDS011;6692;50.710;7.180;2023-02-12T06:41:07;53.83;;;50.70;;
13250;SDS011;6692;50.710;7.180;2023-02-12T06:43:07;51.37;;;48.17;;
13250;SDS011;6692;50.710;7.180;2023-02-12T06:45:08;53.87;;;50.73;;
13250;SDS011;6692;50.710;7.180;2023-02-12T06:47:10;53.07;;;49.90;;
13250;SDS011;6692;50.710;7.180;2023-02-12T06:49:11;56.10;;;52.57;;
13250;SDS011;6692;50.710;7.180;2023-02-12T06:51:14;56.57;;;52.80;;
13250;SDS011;6692;50.710;7.180;2023-02-12T06:53:14;50.83;;;47.40;;
13250;SDS011;6692;50.710;7.180;2023-02-12T06:55:14;53.50;;;49.47;;
13250;SDS011;6692;50.710;7.180;2023-02-12T06:57:15;53.53;;;49.80;;
13250;SDS011;6692;50.710;7.180;2023-02-12T06:59:16;56.37;;;52.37;;
13250;SDS011;6692;50.710;7.180;2023-02-12T07:01:17;53.63;;;49.93;;
13250;SDS011;6692;50.710;7.180;2023-02-12T07:03:17;57.93;;;54.00;;
13250;SDS011;6692;50.710;7.180;2023-02-12T07:05:18;55.77;;;52.23;;
13250;SDS011;6692;50.710;7.180;2023-02-12T07:07:18;63.37;;;59.50;;
13250;SDS011;6692;50.710;7.180;2023-02-12T07:09:19;56.20;;;52.63;;
13250;SDS011;6692;50.710;7.180;2023-02-12T07:11:22;59.50;;;55.27;;
13250;SDS011;6692;50.710;7.180;2023-02-12T07:13:24;58.37;;;54.83;;
13250;SDS011;6692;50.710;7.180;2023-02-12T07:15:25;55.77;;;52.13;;
13250;SDS011;6692;50.710;7.180;2023-02-12T07:17:28;56.17;;;52.47;;
13250;SDS011;6692;50.710;7.180;2023-02-12T07:19:27;61.23;;;57.07;;
13250;SDS011;6692;50.710;7.180;2023-02-12T07:21:28;62.47;;;58.77;;
13250;SDS011;6692;50.710;7.180;2023-02-12T07:23:29;61.63;;;57.97;;
13250;SDS011;6692;50.710;7.180;2023-02-12T07:25:31;59.03;;;55.70;;
13250;SDS011;6692;50.710;7.180;2023-02-12T07:27:34;62.60;;;59.13;;
13250;SDS011;6692;50.710;7.180;2023-02-12T07:29:32;66.87;;;63.17;;
13250;SDS011;6692;50.710;7.180;2023-02-12T07:31:33;61.07;;;57.40;;
13250;SDS011;6692;50.710;7.180;2023-02-12T07:33:34;64.60;;;61.03;;
13250;SDS011;6692;50.710;7.180;2023-02-12T07:35:35;60.03;;;56.83;;
13250;SDS011;6692;50.710;7.180;2023-02-12T07:37:35;62.50;;;58.80;;
13250;SDS011;6692;50.710;7.180;2023-02-12T07:39:37;62.40;;;58.93;;
13250;SDS011;6692;50.710;7.180;2023-02-12T07:41:37;65.47;;;61.87;;
13250;SDS011;6692;50.710;7.180;2023-02-12T07:43:39;62.47;;;58.63;;
13250;SDS011;6692;50.710;7.180;2023-02-12T07:45:39;60.37;;;56.70;;
13250;SDS011;6692;50.710;7.180;2023-02-12T07:47:40;60.10;;;56.23;;
13250;SDS011;6692;50.710;7.180;2023-02-12T07:49:41;71.37;;;67.07;;
13250;SDS011;6692;50.710;7.180;2023-02-12T07:51:41;64.07;;;60.23;;
13250;SDS011;6692;50.710;7.180;2023-02-12T07:53:42;67.93;;;64.00;;
13250;SDS011;6692;50.710;7.180;2023-02-12T07:55:43;70.47;;;66.47;;
13250;SDS011;6692;50.710;7.180;2023-02-12T07:57:44;69.60;;;65.70;;
13250;SDS011;6692;50.710;7.180;2023-02-12T07:59:45;73.47;;;69.40;;
13250;SDS011;6692;50.710;7.180;2023-02-12T08:01:46;70.67;;;66.60;;
13250;SDS011;6692;50.710;7.180;2023-02-12T08:03:46;69.50;;;65.70;;
13250;SDS011;6692;50.710;7.180;2023-02-12T08:05:47;74.33;;;70.20;;
13250;SDS011;6692;50.710;7.180;2023-02-12T08:07:48;70.37;;;66.60;;
13250;SDS011;6692;50.710;7.180;2023-02-12T08:09:49;81.03;;;76.43;;
13250;SDS011;6692;50.710;7.180;2023-02-12T08:11:49;73.13;;;68.93;;
13250;SDS011;6692;50.710;7.180;2023-02-12T08:13:50;78.57;;;74.03;;
13250;SDS011;6692;50.710;7.180;2023-02-12T08:15:58;79.47;;;74.97;;
13250;SDS011;6692;50.710;7.180;2023-02-12T08:17:51;81.90;;;77.10;;
13250;SDS011;6692;50.710;7.180;2023-02-12T08:19:53;80.17;;;75.70;;
13250;SDS011;6692;50.710;7.180;2023-02-12T08:21:54;78.53;;;73.97;;
13250;SDS011;6692;50.710;7.180;2023-02-12T08:23:54;80.00;;;75.17;;
13250;SDS011;6692;50.710;7.180;2023-02-12T08:26:03;79.93;;;74.17;;
13250;SDS011;6692;50.710;7.180;2023-02-12T08:27:55;74.10;;;69.23;;
13250;SDS011;6692;50.710;7.180;2023-02-12T08:29:56;78.70;;;73.97;;
13250;SDS011;6692;50.710;7.180;2023-02-12T08:31:58;80.27;;;74.83;;
13250;SDS011;6692;50.710;7.180;2023-02-12T08:33:58;79.10;;;74.17;;
13250;SDS011;6692;50.710;7.180;2023-02-12T08:36:05;84.30;;;79.40;;
13250;SDS011;6692;50.710;7.180;2023-02-12T08:38:09;85.63;;;80.23;;
13250;SDS011;6692;50.710;7.180;2023-02-12T08:40:10;76.93;;;71.67;;
13250;SDS011;6692;50.710;7.180;2023-02-12T08:42:12;78.77;;;73.73;;
13250;SDS011;6692;50.710;7.180;2023-02-12T08:44:13;75.77;;;70.70;;
13250;SDS011;6692;50.710;7.180;2023-02-12T08:46:16;70.80;;;66.00;;
13250;SDS011;6692;50.710;7.180;2023-02-12T08:48:16;82.03;;;77.07;;
13250;SDS011;6692;50.710;7.180;2023-02-12T08:50:18;80.70;;;75.20;;
13250;SDS011;6692;50.710;7.180;2023-02-12T08:52:19;89.40;;;83.97;;
13250;SDS011;6692;50.710;7.180;2023-02-12T08:54:20;85.93;;;80.67;;
13250;SDS011;6692;50.710;7.180;2023-02-12T08:56:20;87.30;;;81.40;;
13250;SDS011;6692;50.710;7.180;2023-02-12T08:58:20;73.00;;;67.53;;
13250;SDS011;6692;50.710;7.180;2023-02-12T09:00:21;74.33;;;69.23;;
13250;SDS011;6692;50.710;7.180;2023-02-12T09:02:22;74.43;;;69.07;;
13250;SDS011;6692;50.710;7.180;2023-02-12T09:04:24;79.87;;;74.50;;
13250;SDS011;6692;50.710;7.180;2023-02-12T09:06:24;79.57;;;74.00;;
13250;SDS011;6692;50.710;7.180;2023-02-12T09:08:25;79.33;;;74.03;;
13250;SDS011;6692;50.710;7.180;2023-02-12T09:10:26;86.90;;;81.27;;
13250;SDS011;6692;50.710;7.180;2023-02-12T09:12:27;94.30;;;88.67;;
13250;SDS011;6692;50.710;7.180;2023-02-12T09:14:28;90.77;;;84.63;;
13250;SDS011;6692;50.710;7.180;2023-02-12T09:16:30;83.83;;;78.73;;
13250;SDS011;6692;50.710;7.180;2023-02-12T09:18:30;95.47;;;90.13;;
13250;SDS011;6692;50.710;7.180;2023-02-12T09:20:30;87.87;;;82.77;;
13250;SDS011;6692;50.710;7.180;2023-02-12T09:22:31;88.73;;;83.57;;
13250;SDS011;6692;50.710;7.180;2023-02-12T09:24:33;95.67;;;90.03;;
13250;SDS011;6692;50.710;7.180;2023-02-12T09:26:33;97.27;;;91.47;;
13250;SDS011;6692;50.710;7.180;2023-02-12T09:28:35;99.33;;;93.57;;
13250;SDS011;6692;50.710;7.180;2023-02-12T09:30:35;95.23;;;89.83;;
13250;SDS011;6692;50.710;7.180;2023-02-12T09:32:35;91.17;;;86.00;;
13250;SDS011;6692;50.710;7.180;2023-02-12T09:34:36;97.57;;;91.77;;
13250;SDS011;6692;50.710;7.180;2023-02-12T09:36:36;83.67;;;78.17;;
13250;SDS011;6692;50.710;7.180;2023-02-12T09:38:37;99.33;;;94.03;;
13250;SDS011;6692;50.710;7.180;2023-02-12T09:42:58;90.73;;;85.70;;
13250;SDS011;6692;50.710;7.180;2023-02-12T09:45:00;88.27;;;82.87;;
13250;SDS011;6692;50.710;7.180;2023-02-12T09:47:03;84.87;;;79.93;;
13250;SDS011;6692;50.710;7.180;2023-02-12T09:49:06;92.80;;;87.27;;
13250;SDS011;6692;50.710;7.180;2023-02-12T09:51:07;84.70;;;78.87;;
13250;SDS011;6692;50.710;7.180;2023-02-12T09:53:10;86.10;;;80.00;;
13250;SDS011;6692;50.710;7.180;2023-02-12T09:55:10;95.03;;;89.70;;
13250;SDS011;6692;50.710;7.180;2023-02-12T09:57:13;99.93;;;94.47;;
13250;SDS011;6692;50.710;7.180;2023-02-12T09:59:12;94.97;;;89.53;;
13250;SDS011;6692;50.710;7.180;2023-02-12T10:01:14;86.50;;;80.57;;
13250;SDS011;6692;50.710;7.180;2023-02-12T10:03:14;97.30;;;91.87;;
13250;SDS011;6692;50.710;7.180;2023-02-12T10:05:17;105.87;;;99.97;;
13250;SDS011;6692;50.710;7.180;2023-02-12T10:07:21;92.47;;;87.00;;
13250;SDS011;6692;50.710;7.180;2023-02-12T10:09:31;105.97;;;100.23;;
13250;SDS011;6692;50.710;7.180;2023-02-12T10:11:36;107.33;;;101.40;;
13250;SDS011;6692;50.710;7.180;2023-02-12T10:13:40;104.73;;;98.57;;
13250;SDS011;6692;50.710;7.180;2023-02-12T10:15:43;102.67;;;96.43;;
13250;SDS011;6692;50.710;7.180;2023-02-12T10:17:51;109.33;;;102.70;;
13250;SDS011;6692;50.710;7.180;2023-02-12T10:20:20;100.87;;;94.40;;
13250;SDS011;6692;50.710;7.180;2023-02-12T10:22:26;98.93;;;93.00;;
13250;SDS011;6692;50.710;7.180;2023-02-12T10:24:26;99.83;;;93.43;;
13250;SDS011;6692;50.710;7.180;2023-02-12T10:26:29;115.17;;;108.53;;
13250;SDS011;6692;50.710;7.180;2023-02-12T10:28:31;94.00;;;87.53;;
13250;SDS011;6692;50.710;7.180;2023-02-12T10:32:43;93.13;;;86.83;;
13250;SDS011;6692;50.710;7.180;2023-02-12T10:34:45;105.03;;;98.17;;
13250;SDS011;6692;50.710;7.180;2023-02-12T10:36:47;112.77;;;105.93;;
13250;SDS011;6692;50.710;7.180;2023-02-12T10:38:48;112.53;;;105.53;;
13250;SDS011;6692;50.710;7.180;2023-02-12T10:40:47;118.87;;;111.80;;
13250;SDS011;6692;50.710;7.180;2023-02-12T10:42:49;126.70;;;119.47;;
13250;SDS011;6692;50.710;7.180;2023-02-12T10:44:49;95.30;;;88.40;;
13250;SDS011;6692;50.710;7.180;2023-02-12T10:46:49;97.07;;;90.63;;
13250;SDS011;6692;50.710;7.180;2023-02-12T10:48:51;129.97;;;122.77;;
13250;SDS011;6692;50.710;7.180;2023-02-12T10:50:59;130.50;;;123.23;;
13250;SDS011;6692;50.710;7.180;2023-02-12T10:52:58;122.00;;;114.93;;
13250;SDS011;6692;50.710;7.180;2023-02-12T10:54:59;134.87;;;127.37;;
13250;SDS011;6692;50.710;7.180;2023-02-12T10:57:05;142.67;;;135.43;;
13250;SDS011;6692;50.710;7.180;2023-02-12T10:59:00;128.23;;;121.57;;
13250;SDS011;6692;50.710;7.180;2023-02-12T11:01:01;141.43;;;134.53;;
13250;SDS011;6692;50.710;7.180;2023-02-12T11:03:21;137.37;;;130.77;;
13250;SDS011;6692;50.710;7.180;2023-02-12T11:05:22;122.90;;;116.63;;
13250;SDS011;6692;50.710;7.180;2023-02-12T11:07:22;133.27;;;126.90;;
13250;SDS011;6692;50.710;7.180;2023-02-12T11:09:28;130.57;;;124.27;;
13250;SDS011;6692;50.710;7.180;2023-02-12T11:11:28;114.27;;;108.10;;
13250;SDS011;6692;50.710;7.180;2023-02-12T11:13:28;139.30;;;132.70;;
13250;SDS011;6692;50.710;7.180;2023-02-12T11:15:33;131.73;;;125.20;;
13250;SDS011;6692;50.710;7.180;2023-02-12T11:17:38;128.53;;;122.00;;
13250;SDS011;6692;50.710;7.180;2023-02-12T11:19:39;119.50;;;113.33;;
13250;SDS011;6692;50.710;7.180;2023-02-12T11:21:39;128.77;;;122.17;;
13250;SDS011;6692;50.710;7.180;2023-02-12T11:23:41;119.23;;;113.30;;
13250;SDS011;6692;50.710;7.180;2023-02-12T11:25:41;136.20;;;129.57;;
13250;SDS011;6692;50.710;7.180;2023-02-12T11:27:41;122.50;;;116.40;;
13250;SDS011;6692;50.710;7.180;2023-02-12T11:29:42;130.63;;;124.37;;
13250;SDS011;6692;50.710;7.180;2023-02-12T11:31:43;128.30;;;122.20;;
13250;SDS011;6692;50.710;7.180;2023-02-12T11:33:44;127.67;;;121.53;;
13250;SDS011;6692;50.710;7.180;2023-02-12T11:35:48;120.43;;;114.70;;
13250;SDS011;6692;50.710;7.180;2023-02-12T11:37:49;111.20;;;105.40;;
13250;SDS011;6692;50.710;7.180;2023-02-12T11:39:50;126.07;;;119.93;;
13250;SDS011;6692;50.710;7.180;2023-02-12T11:41:53;121.17;;;114.87;;
13250;SDS011;6692;50.710;7.180;2023-02-12T11:43:54;125.53;;;119.23;;
13250;SDS011;6692;50.710;7.180;2023-02-12T11:45:56;129.73;;;123.40;;
13250;SDS011;6692;50.710;7.180;2023-02-12T11:47:58;126.87;;;120.67;;
13250;SDS011;6692;50.710;7.180;2023-02-12T11:50:30;138.23;;;131.30;;
13250;SDS011;6692;50.710;7.180;2023-02-12T11:52:31;108.73;;;102.93;;
13250;SDS011;6692;50.710;7.180;2023-02-12T11:54:33;131.67;;;125.27;;
13250;SDS011;6692;50.710;7.180;2023-02-12T11:56:40;126.60;;;120.30;;
13250;SDS011;6692;50.710;7.180;2023-02-12T11:58:41;135.17;;;128.73;;
13250;SDS011;6692;50.710;7.180;2023-02-12T12:00:45;138.73;;;132.17;;
13250;SDS011;6692;50.710;7.180;2023-02-12T12:02:48;133.57;;;126.97;;
13250;SDS011;6692;50.710;7.180;2023-02-12T12:04:47;127.87;;;121.57;;
13250;SDS011;6692;50.710;7.180;2023-02-12T12:06:50;138.37;;;131.57;;
13250;SDS011;6692;50.710;7.180;2023-02-12T12:08:53;149.83;;;142.97;;
13250;SDS011;6692;50.710;7.180;2023-02-12T12:11:10;141.60;;;134.93;;
13250;SDS011;6692;50.710;7.180;2023-02-12T12:13:28;132.93;;;126.50;;
13250;SDS011;6692;50.710;7.180;2023-02-12T12:15:29;145.80;;;138.77;;